Tecumseh, Canada
Current Conditions -  °F | °C
As of 1:00 AM on Tuesday 21 Oct 2014 (Local Time) from CYQG Reporting Station
Overcast Overcast  
Wind Chill: 10°   Ceiling: 6100
Heat Index: 10°   Visibility: 15mi
Dew Point:   Wind: 10mph
Humidity: 87%   Direction: 330°NNW
Pressure: 29.86"   Gusts: NA
Location:  42.32°N, 82.89°W
Report Text: CYQG 210500Z 33009KT 15SM FEW016 BKN061 OVC080 10/08 A2986 RMK SC2SC4AC2 SLP114
Loading
Personal Weather Stations






























Interactive Weather Map
Tropical Storm Tracking
New forecast layout! Learn more

10-Day Weather Forecast

Advertisements
Track Severe Weather on mobile